Wilbraham, MA (01095)

1:23 PM EDT on August 29, 2015 (GMT -0400)
Wilbraham & Monson Academy | | Change Station
CLOSE
Current Station
Personal Weather Station
Location: Wilbraham, MA
Elevation: 318 ft
Nearby Weather Stations

Elev 318 ft 42.13 °N, 72.43 °W | Updated 12 minutes ago

Partly Cloudy
Partly Cloudy
80.4 °F
Feels Like 81 °F
N
7.0
Wind Variable Wind from SE
Gusts 7.0 mph

Today
High -- | Low -- °F
--% Chance of Precip.
Yesterday
High -- | Low -- °F
Precip. -- in
6:11 AM 7:28 PM
Full, 100% visible
Pressure 30.18 in
Visibility 10.0 miles
Clouds Few 4900 ft
Heat Index 81 °F
Dew Point 58 °F
Humidity 47%
Rainfall 0.00 in
Snow Depth Not available.
UV 6.6 out of 12
Pollen 9.40 out of 12
Air Quality Not available.
Flu Activity Not available.
METAR KCEF 291658Z AUTO VRB03KT 10SM FEW049 26/13 A3016 RMK AO2 SLP218 T02560126
Pressure 30.18 in
Visibility 10.0 miles
Clouds Few 4900 ft
Heat Index 81 °F
Dew Point 58 °F
Humidity 47%
Rainfall 0.00 in
Snow Depth Not available.
UV 6.6 out of 12
Pollen 9.40 out of 12
Air Quality Not available.
Flu Activity Not available.
METAR KCEF 291658Z AUTO VRB03KT 10SM FEW049 26/13 A3016 RMK AO2 SLP218 T02560126

10-Day Weather Forecast

×

Almanac

Astronomy

Aug. 29, 2015 Rise Set
Actual Time
Civil Twilight
Nautical Twilight
Astronomical Twilight
Moon
Length of Visible Light
Length of Day
Tomorrow will be .
, % of the Moon is Illuminated

Today's Extremes

State Highs State Lows

Community

WunderPhotos

Upload Photos

1,850,734 photos uploaded!

WunderBlogs® & News

Nearby

Air Quality

  Air Quality AQ Index Pollutant
Not available.

Snow Depth

Station Depth Elevation

Earthquake Activity

City Distance Mag. Time & Date
Minimum magnitude displayed is 2.5.

Coastal Water Temperatures

Place Temperature

Stations

Nearby Weather Stations

Station Location Temp. Windchill Dew Point Humidity Wind Precip. Elev Updated Type